LDB weather

Governador José Richa Airport
Londrina, Paraná, Brazil

Public forecast

Using degrees Celsius for public forecast. Weather courtesy of forecast.io.

METAR (pilot weather report)

Retrieved 2019/07/16 03:00 UTC (57 minutes ago):

SBLO 160300Z 00000KT CAVOK 16/14 Q1019

TAF (pilot weather forecast)

Retrieved 2019/07/16 00:00 UTC (4 hours ago):

TAF SBLO 152100Z 1600/1612 00000KT 9999 SCT040 TX15/1600Z TN14/1609Z PROB40 1606/1612 0500 FG BKN002 RMK PDJ